Time;durP1;ratioP1;P1;durP2;ratioP2;P2;SDS_P1;SDS_P2;PMS_P1;PMS_P2;Temp;Humidity;BMP_temperature;BMP_pressure;BME280_temperature;BME280_humidity;BME280_pressure;Samples;Min_cycle;Max_cycle;Signal;HPM_P1;HPM_P2
2023/06/24 00:00:30;;;;;;;1999.90;999.90;;;15.40;99.90;;;;;;5020892;28;20045;-81
2023/06/24 00:02:57;;;;;;;1999.90;999.90;;;15.40;99.90;;;;;;5019168;28;20026;-80
2023/06/24 00:05:23;;;;;;;1999.90;999.90;;;15.30;99.90;;;;;;5019141;28;20085;-80
2023/06/24 00:07:49;;;;;;;1999.90;999.90;;;15.30;99.90;;;;;;5017698;28;20030;-80
2023/06/24 00:10:14;;;;;;;1999.90;999.90;;;15.40;99.90;;;;;;5021204;28;20498;-80
2023/06/24 00:12:41;;;;;;;1999.90;999.90;;;15.40;99.90;;;;;;5021968;28;20503;-80
2023/06/24 00:15:09;;;;;;;1999.90;999.90;;;15.40;99.90;;;;;;5022568;28;20037;-80
2023/06/24 00:17:35;;;;;;;1999.90;999.90;;;15.30;99.90;;;;;;5020589;28;20034;-80
2023/06/24 00:20:00;;;;;;;1999.90;999.90;;;15.20;99.90;;;;;;5019710;28;20105;-80
2023/06/24 00:22:26;;;;;;;1999.90;999.90;;;15.40;99.90;;;;;;5020902;28;20042;-79
2023/06/24 00:24:52;;;;;;;1999.90;999.90;;;15.30;99.90;;;;;;5021102;28;20475;-80
2023/06/24 00:27:17;;;;;;;1999.90;999.90;;;15.10;99.90;;;;;;5019403;28;20077;-80
2023/06/24 00:29:43;;;;;;;1999.90;999.90;;;15.20;99.90;;;;;;5020564;28;20504;-80
2023/06/24 00:32:08;;;;;;;1999.90;999.90;;;15.00;99.90;;;;;;5019984;28;20043;-80
2023/06/24 00:34:34;;;;;;;1999.90;999.90;;;15.00;99.90;;;;;;5017668;28;20034;-80
2023/06/24 00:37:00;;;;;;;1999.90;999.90;;;15.00;99.90;;;;;;5017547;28;20077;-80
2023/06/24 00:39:25;;;;;;;1999.90;999.90;;;14.90;99.90;;;;;;5019344;28;20540;-80
2023/06/24 00:41:51;;;;;;;1999.90;999.90;;;14.90;99.90;;;;;;5017056;28;20026;-80
2023/06/24 00:44:17;;;;;;;1999.90;999.90;;;14.90;99.90;;;;;;5017015;28;20117;-80
2023/06/24 00:46:42;;;;;;;1999.90;999.90;;;14.90;99.90;;;;;;5017980;28;20416;-80
2023/06/24 00:49:08;;;;;;;1999.90;999.90;;;14.90;99.90;;;;;;5018021;28;20038;-80
2023/06/24 00:51:35;;;;;;;1999.90;999.90;;;14.90;99.90;;;;;;5018877;28;20034;-80
2023/06/24 00:54:01;;;;;;;1999.90;999.90;;;14.80;99.90;;;;;;5017333;28;20527;-80
2023/06/24 00:56:45;;;;;;;1999.90;999.90;;;14.70;99.90;;;;;;5019254;28;20038;-80
2023/06/24 00:59:14;;;;;;;1999.90;999.90;;;14.70;99.90;;;;;;5018643;28;20532;-80
2023/06/24 01:01:41;;;;;;;1999.90;999.90;;;14.60;99.90;;;;;;5018774;28;20555;-79
2023/06/24 01:04:07;;;;;;;1999.90;999.90;;;14.60;99.90;;;;;;5018586;28;20145;-79
2023/06/24 01:06:35;;;;;;;1999.90;999.90;;;14.60;99.90;;;;;;5017255;28;20121;-79
2023/06/24 01:09:02;;;;;;;1999.90;999.90;;;14.60;99.90;;;;;;5018358;28;20117;-79
2023/06/24 01:11:29;;;;;;;1999.90;999.90;;;14.70;99.90;;;;;;5017245;28;20042;-80
2023/06/24 01:13:55;;;;;;;1999.90;999.90;;;14.60;99.90;;;;;;5017266;28;20040;-80
2023/06/24 01:16:56;;;;;;;1999.90;999.90;;;14.60;99.90;;;;;;5016767;28;20037;-80
2023/06/24 01:19:56;;;;;;;1999.90;999.90;;;14.60;99.90;;;;;;5008323;28;20050;-80
2023/06/24 01:22:47;;;;;;;1999.90;999.90;;;14.60;99.90;;;;;;4997074;28;20038;-80
2023/06/24 01:25:22;;;;;;;1999.90;999.90;;;14.60;99.90;;;;;;5018499;28;20501;-80
2023/06/24 01:27:55;;;;;;;1999.90;999.90;;;14.50;99.90;;;;;;5018574;28;20121;-80
2023/06/24 01:30:48;;;;;;;1999.90;999.90;;;14.40;99.90;;;;;;5017033;28;20073;-80
2023/06/24 01:33:22;;;;;;;1999.90;999.90;;;14.40;99.90;;;;;;4998109;28;20047;-80
2023/06/24 01:35:48;;;;;;;1999.90;999.90;;;14.40;99.90;;;;;;5018555;28;20038;-80
2023/06/24 01:38:24;;;;;;;1999.90;999.90;;;14.30;99.90;;;;;;5019552;28;20030;-80
2023/06/24 01:40:51;;;;;;;1999.90;999.90;;;14.30;99.90;;;;;;5020066;28;20091;-79
2023/06/24 01:43:18;;;;;;;1999.90;999.90;;;14.20;99.90;;;;;;5018489;28;20038;-80
2023/06/24 01:45:49;;;;;;;1999.90;999.90;;;14.20;99.90;;;;;;5025035;28;20094;-80
2023/06/24 01:48:35;;;;;;;1999.90;999.90;;;14.20;99.90;;;;;;5019238;28;20034;-81
2023/06/24 01:51:06;;;;;;;1999.90;999.90;;;14.10;99.90;;;;;;5017419;28;20042;-80
2023/06/24 01:53:35;;;;;;;1999.90;999.90;;;14.10;99.90;;;;;;5019235;28;20042;-80
2023/06/24 01:56:02;;;;;;;1999.90;999.90;;;14.10;99.90;;;;;;5019308;28;20088;-79
2023/06/24 01:58:30;;;;;;;1999.90;999.90;;;14.20;99.90;;;;;;5019295;28;20038;-79
2023/06/24 02:00:57;;;;;;;1999.90;999.90;;;14.20;99.90;;;;;;5019940;28;20026;-79
2023/06/24 02:03:24;;;;;;;1999.90;999.90;;;14.30;99.90;;;;;;5022600;28;20056;-79
2023/06/24 02:05:51;;;;;;;1999.90;999.90;;;14.20;99.90;;;;;;5035954;28;20088;-79
2023/06/24 02:08:18;;;;;;;1999.90;999.90;;;14.20;99.90;;;;;;5018233;28;20108;-79
2023/06/24 02:10:46;;;;;;;1999.90;999.90;;;14.20;99.90;;;;;;5018995;28;20070;-80
2023/06/24 02:13:12;;;;;;;1999.90;999.90;;;14.10;99.90;;;;;;5017865;28;20042;-79
2023/06/24 02:15:38;;;;;;;1999.90;999.90;;;14.10;99.90;;;;;;5030602;28;20042;-79
2023/06/24 02:18:05;;;;;;;1999.90;999.90;;;14.10;99.90;;;;;;5024405;28;20038;-79
2023/06/24 02:20:32;;;;;;;1999.90;999.90;;;14.00;99.90;;;;;;5017112;28;20516;-79
2023/06/24 02:22:58;;;;;;;1999.90;999.90;;;14.00;99.90;;;;;;5018428;28;20110;-79
2023/06/24 02:25:25;;;;;;;1999.90;999.90;;;14.00;99.90;;;;;;5017929;28;20485;-80
2023/06/24 02:27:53;;;;;;;1999.90;999.90;;;13.80;99.90;;;;;;5018717;28;20041;-79
2023/06/24 02:30:20;;;;;;;1999.90;999.90;;;13.80;99.90;;;;;;5018798;28;20037;-79
2023/06/24 02:32:46;;;;;;;1999.90;999.90;;;13.80;99.90;;;;;;5018435;28;20057;-79
2023/06/24 02:35:11;;;;;;;1999.90;999.90;;;13.80;99.90;;;;;;5017767;28;20034;-80
2023/06/24 02:37:37;;;;;;;1999.90;999.90;;;13.80;99.90;;;;;;5017523;28;20049;-79
2023/06/24 02:40:05;;;;;;;1999.90;999.90;;;13.70;99.90;;;;;;5018762;28;20057;-79
2023/06/24 02:42:31;;;;;;;1999.90;999.90;;;13.70;99.90;;;;;;5018350;28;20472;-79
2023/06/24 02:44:57;;;;;;;1999.90;999.90;;;13.70;99.90;;;;;;5017620;28;20039;-79
2023/06/24 02:47:24;;;;;;;1999.90;999.90;;;13.80;99.90;;;;;;5016995;28;20133;-79
2023/06/24 02:49:51;;;;;;;1999.90;999.90;;;13.80;99.90;;;;;;5016514;28;20041;-81
2023/06/24 02:52:17;;;;;;;1999.90;999.90;;;13.80;99.90;;;;;;5015051;28;20037;-79
2023/06/24 02:54:43;;;;;;;1999.90;999.90;;;13.80;99.90;;;;;;5015089;28;20404;-79
2023/06/24 02:57:09;;;;;;;1999.90;999.90;;;13.90;99.90;;;;;;5017851;28;20034;-79
2023/06/24 02:59:35;;;;;;;1999.90;999.90;;;13.80;99.90;;;;;;5023262;28;20034;-79
2023/06/24 03:02:03;;;;;;;1999.90;999.90;;;13.70;99.90;;;;;;5022052;28;20022;-79
2023/06/24 03:04:29;;;;;;;1999.90;999.90;;;13.70;99.90;;;;;;5022583;28;20030;-79
2023/06/24 03:06:56;;;;;;;1999.90;999.90;;;13.60;99.90;;;;;;5023317;28;20137;-79
2023/06/24 03:09:22;;;;;;;1999.90;999.90;;;13.60;99.90;;;;;;5021854;28;20066;-79
2023/06/24 03:11:48;;;;;;;1999.90;999.90;;;13.50;99.90;;;;;;5021320;28;20058;-79
2023/06/24 03:14:14;;;;;;;1999.90;999.90;;;13.50;99.90;;;;;;5021363;28;20125;-79
2023/06/24 03:16:40;;;;;;;1999.90;999.90;;;13.50;99.90;;;;;;5021610;28;20034;-79
2023/06/24 03:19:05;;;;;;;1999.90;999.90;;;13.60;99.90;;;;;;5021534;28;20038;-79
2023/06/24 03:21:31;;;;;;;1999.90;999.90;;;13.50;99.90;;;;;;5021414;28;20385;-79
2023/06/24 03:23:58;;;;;;;1999.90;999.90;;;13.50;99.90;;;;;;5023210;28;20037;-79
2023/06/24 03:26:45;;;;;;;1999.90;999.90;;;13.60;99.90;;;;;;5023186;28;20033;-79
2023/06/24 03:29:11;;;;;;;1999.90;999.90;;;13.60;99.90;;;;;;5021335;28;20085;-79
2023/06/24 03:31:37;;;;;;;1999.90;999.90;;;13.50;99.90;;;;;;5022957;28;20697;-79
2023/06/24 03:34:02;;;;;;;1999.90;999.90;;;13.50;99.90;;;;;;5022005;28;20035;-79
2023/06/24 03:36:28;;;;;;;1999.90;999.90;;;13.50;99.90;;;;;;5022512;28;20037;-79
2023/06/24 03:38:53;;;;;;;1999.90;999.90;;;13.40;99.90;;;;;;5021832;28;20034;-79
2023/06/24 03:41:19;;;;;;;1999.90;999.90;;;13.60;99.90;;;;;;5023656;28;20035;-79
2023/06/24 03:43:45;;;;;;;1999.90;999.90;;;13.60;99.90;;;;;;5024184;28;20042;-79
2023/06/24 03:46:11;;;;;;;1999.90;999.90;;;13.60;99.90;;;;;;5023668;28;20030;-79
2023/06/24 03:48:37;;;;;;;1999.90;999.90;;;13.60;99.90;;;;;;5023122;28;20042;-79
2023/06/24 03:51:02;;;;;;;1999.90;999.90;;;13.60;99.90;;;;;;5020478;28;20038;-79
2023/06/24 03:53:28;;;;;;;1999.90;999.90;;;13.70;99.90;;;;;;5022927;28;20133;-79
2023/06/24 03:55:53;;;;;;;1999.90;999.90;;;13.70;99.90;;;;;;5021597;28;20030;-79
2023/06/24 03:58:20;;;;;;;1999.90;999.90;;;13.80;99.90;;;;;;5023140;28;20049;-79
2023/06/24 04:00:49;;;;;;;1999.90;999.90;;;13.80;99.90;;;;;;5021928;28;20031;-79
2023/06/24 04:03:15;;;;;;;1999.90;999.90;;;13.90;99.90;;;;;;5023080;28;20567;-79
2023/06/24 04:05:41;;;;;;;1999.90;999.90;;;13.90;99.90;;;;;;5022863;28;20056;-79
2023/06/24 04:08:07;;;;;;;1999.90;999.90;;;13.90;99.90;;;;;;5021951;28;20809;-79
2023/06/24 04:10:33;;;;;;;1999.90;999.90;;;14.00;99.90;;;;;;5020440;28;20034;-79
2023/06/24 04:12:58;;;;;;;1999.90;999.90;;;14.00;99.90;;;;;;5032810;28;20057;-79
2023/06/24 04:15:24;;;;;;;1999.90;999.90;;;14.00;99.90;;;;;;5029634;28;20417;-79
2023/06/24 04:17:49;;;;;;;1999.90;999.90;;;14.00;99.90;;;;;;5018753;28;20030;-79
2023/06/24 04:20:15;;;;;;;1999.90;999.90;;;14.00;99.90;;;;;;5018954;28;20081;-79
2023/06/24 04:22:41;;;;;;;1999.90;999.90;;;13.90;99.90;;;;;;5019877;28;20039;-79
2023/06/24 04:25:08;;;;;;;1999.90;999.90;;;13.90;99.90;;;;;;5018296;28;20030;-79
2023/06/24 04:27:34;;;;;;;1999.90;999.90;;;13.90;99.90;;;;;;5020261;28;20046;-79
2023/06/24 04:30:03;;;;;;;1999.90;999.90;;;14.00;99.90;;;;;;5020582;28;20035;-79
2023/06/24 04:32:29;;;;;;;1999.90;999.90;;;14.00;99.90;;;;;;5019896;28;20049;-79
2023/06/24 04:34:54;;;;;;;1999.90;999.90;;;14.10;99.90;;;;;;5027701;28;20045;-79
2023/06/24 04:37:20;;;;;;;1999.90;999.90;;;14.10;99.90;;;;;;5022572;28;20042;-79
2023/06/24 04:39:46;;;;;;;1999.90;999.90;;;14.20;99.90;;;;;;5019590;28;20455;-79
2023/06/24 04:42:12;;;;;;;1999.90;999.90;;;14.20;99.90;;;;;;5017076;28;20575;-79
2023/06/24 04:44:37;;;;;;;1999.90;999.90;;;14.30;99.90;;;;;;5017582;28;20026;-79
2023/06/24 04:47:03;;;;;;;1999.90;999.90;;;14.40;99.90;;;;;;5019443;28;20440;-79
2023/06/24 04:49:28;;;;;;;1999.90;999.90;;;14.40;99.90;;;;;;5018255;28;20381;-79
2023/06/24 04:51:54;;;;;;;1999.90;999.90;;;14.50;99.90;;;;;;5018293;28;20034;-79
2023/06/24 04:54:19;;;;;;;1999.90;999.90;;;14.50;99.90;;;;;;5018601;28;20085;-79
2023/06/24 04:56:48;;;;;;;1999.90;999.90;;;14.60;99.90;;;;;;5018862;28;20031;-79
2023/06/24 04:59:13;;;;;;;1999.90;999.90;;;14.60;99.90;;;;;;5019486;28;20514;-79
2023/06/24 05:01:39;;;;;;;1999.90;999.90;;;14.70;99.90;;;;;;5019360;28;20030;-80
2023/06/24 05:04:04;;;;;;;1999.90;999.90;;;14.80;99.90;;;;;;5017041;28;20088;-81
2023/06/24 05:06:30;;;;;;;1999.90;999.90;;;14.90;99.90;;;;;;5018440;28;20039;-81
2023/06/24 05:08:55;;;;;;;1999.90;999.90;;;15.00;99.90;;;;;;5018860;28;20042;-80
2023/06/24 05:11:21;;;;;;;1999.90;999.90;;;15.00;99.90;;;;;;5018797;28;20037;-81
2023/06/24 05:13:46;;;;;;;1999.90;999.90;;;15.10;99.90;;;;;;5017131;28;20030;-81
2023/06/24 05:16:12;;;;;;;1999.90;999.90;;;15.20;99.90;;;;;;5018847;28;20091;-81
2023/06/24 05:18:37;;;;;;;1999.90;999.90;;;15.30;99.90;;;;;;5017258;28;20061;-81
2023/06/24 05:21:03;;;;;;;1999.90;999.90;;;15.50;99.90;;;;;;5017512;28;20038;-81
2023/06/24 05:23:28;;;;;;;1999.90;999.90;;;15.60;99.90;;;;;;5017793;28;20038;-80
2023/06/24 05:25:54;;;;;;;1999.90;999.90;;;15.70;99.90;;;;;;5017653;28;20129;-81
2023/06/24 05:28:19;;;;;;;1999.90;999.90;;;15.80;99.90;;;;;;5017256;28;20062;-81
2023/06/24 05:30:46;;;;;;;1999.90;999.90;;;15.90;99.90;;;;;;5018369;28;20186;-81
2023/06/24 05:33:11;;;;;;;1999.90;999.90;;;16.00;99.90;;;;;;5020583;28;20044;-80
2023/06/24 05:35:40;;;;;;;1999.90;999.90;;;16.10;99.90;;;;;;5019773;28;20515;-81
2023/06/24 05:38:06;;;;;;;1999.90;999.90;;;16.30;99.90;;;;;;5016824;28;20038;-80
2023/06/24 05:40:31;;;;;;;1999.90;999.90;;;16.20;99.90;;;;;;5018523;28;20046;-81
2023/06/24 05:42:57;;;;;;;1999.90;999.90;;;16.40;99.90;;;;;;5016500;28;20049;-81
2023/06/24 05:45:22;;;;;;;1999.90;999.90;;;16.50;99.90;;;;;;5018075;28;20037;-81
2023/06/24 05:47:48;;;;;;;1999.90;999.90;;;16.60;99.90;;;;;;5016528;28;20584;-81
2023/06/24 05:50:13;;;;;;;1999.90;999.90;;;16.70;99.90;;;;;;5016974;28;20038;-81
2023/06/24 05:52:39;;;;;;;1999.90;999.90;;;16.70;99.90;;;;;;5016462;28;20517;-81
2023/06/24 05:55:05;;;;;;;1999.90;999.90;;;16.80;99.90;;;;;;5018449;28;20404;-81
2023/06/24 05:57:31;;;;;;;1999.90;999.90;;;16.80;99.90;;;;;;5016696;28;20519;-81
2023/06/24 05:59:56;;;;;;;1999.90;999.90;;;17.40;99.90;;;;;;5019590;28;20462;-81
2023/06/24 06:02:21;;;;;;;1999.90;999.90;;;17.40;99.90;;;;;;5017954;28;20040;-81
2023/06/24 06:04:47;;;;;;;1999.90;999.90;;;17.30;99.90;;;;;;5018891;28;20038;-81
2023/06/24 06:07:13;;;;;;;1999.90;999.90;;;17.80;99.90;;;;;;5018691;28;20101;-81
2023/06/24 06:09:38;;;;;;;1999.90;999.90;;;17.30;99.90;;;;;;5087960;22;20045;-78
2023/06/24 06:12:05;;;;;;;1999.90;999.90;;;17.40;99.90;;;;;;5075385;28;20501;-77
2023/06/24 06:14:30;;;;;;;1999.90;999.90;;;17.50;99.90;;;;;;5075706;28;20091;-78
2023/06/24 06:16:56;;;;;;;1999.90;999.90;;;17.60;99.90;;;;;;5075736;28;20033;-78
2023/06/24 06:19:21;;;;;;;1999.90;999.90;;;17.80;99.90;;;;;;5075193;28;20086;-81
2023/06/24 06:21:48;;;;;;;1999.90;999.90;;;18.20;99.90;;;;;;5073886;28;20441;-78
2023/06/24 06:24:14;;;;;;;1999.90;999.90;;;18.00;99.90;;;;;;5075492;28;20109;-78
2023/06/24 06:26:44;;;;;;;1999.90;999.90;;;18.10;99.90;;;;;;5075300;28;20075;-78
2023/06/24 06:29:12;;;;;;;1999.90;999.90;;;18.20;99.90;;;;;;5075237;28;20107;-78
2023/06/24 06:31:39;;;;;;;1999.90;999.90;;;18.30;99.90;;;;;;5072521;28;20037;-79
2023/06/24 06:34:04;;;;;;;1999.90;999.90;;;18.40;99.90;;;;;;5075087;28;20041;-76
2023/06/24 06:36:30;;;;;;;1999.90;999.90;;;18.60;99.90;;;;;;5074757;28;20470;-76
2023/06/24 06:38:55;;;;;;;1999.90;999.90;;;18.90;99.90;;;;;;5074639;28;20044;-78
2023/06/24 06:41:24;;;;;;;1999.90;999.90;;;18.80;99.90;;;;;;5064678;28;20030;-77
2023/06/24 06:43:53;;;;;;;1999.90;999.90;;;18.90;99.90;;;;;;5040605;28;20037;-77
2023/06/24 06:46:19;;;;;;;1999.90;999.90;;;19.00;99.90;;;;;;5054648;28;20076;-77
2023/06/24 06:48:45;;;;;;;1999.90;999.90;;;19.10;99.90;;;;;;5036371;28;20070;-81
2023/06/24 06:51:11;;;;;;;1999.90;999.90;;;19.30;99.90;;;;;;5048016;28;20120;-75
2023/06/24 06:53:37;;;;;;;1999.90;999.90;;;19.30;99.90;;;;;;5040899;28;20038;-76
2023/06/24 06:56:03;;;;;;;1999.90;999.90;;;19.70;99.90;;;;;;5033256;28;20030;-76
2023/06/24 06:58:28;;;;;;;1999.90;999.90;;;19.60;99.90;;;;;;5042519;28;20037;-76
2023/06/24 07:00:54;;;;;;;1999.90;999.90;;;19.80;99.90;;;;;;5040201;28;20164;-76
2023/06/24 07:03:19;;;;;;;1999.90;999.90;;;19.90;99.90;;;;;;5052551;28;20096;-76
2023/06/24 07:05:46;;;;;;;1999.90;999.90;;;20.20;99.90;;;;;;5054411;28;20038;-76
2023/06/24 07:08:11;;;;;;;1999.90;999.90;;;20.80;99.90;;;;;;5053831;28;20029;-76
2023/06/24 07:10:37;;;;;;;1999.90;999.90;;;20.50;99.90;;;;;;5052892;28;20060;-76
2023/06/24 07:13:02;;;;;;;1999.90;999.90;;;20.70;99.90;;;;;;5053041;28;20403;-82
2023/06/24 07:15:28;;;;;;;1999.90;999.90;;;20.80;99.90;;;;;;5033179;28;20161;-77
2023/06/24 07:17:54;;;;;;;1999.90;999.90;;;20.80;99.90;;;;;;5032567;28;20488;-75
2023/06/24 07:20:22;;;;;;;1999.90;999.90;;;20.90;99.90;;;;;;5040543;28;20029;-75
2023/06/24 07:22:48;;;;;;;1999.90;999.90;;;21.30;99.90;;;;;;5053195;28;20038;-75
2023/06/24 07:25:14;;;;;;;1999.90;999.90;;;21.30;99.90;;;;;;5054051;28;20026;-78
2023/06/24 07:27:39;;;;;;;1999.90;999.90;;;21.50;99.90;;;;;;5054019;28;20060;-74
2023/06/24 07:30:06;;;;;;;1999.90;999.90;;;21.90;99.90;;;;;;5051799;28;20434;-75
2023/06/24 07:32:31;;;;;;;1999.90;999.90;;;21.90;99.90;;;;;;5033378;28;20092;-75
2023/06/24 07:34:57;;;;;;;1999.90;999.90;;;22.10;99.90;;;;;;5033049;28;20088;-75
2023/06/24 07:37:23;;;;;;;1999.90;999.90;;;22.30;99.90;;;;;;5041007;28;20034;-75
2023/06/24 07:39:48;;;;;;;1999.90;999.90;;;22.60;98.50;;;;;;5053923;28;20043;-75
2023/06/24 07:42:18;;;;;;;1999.90;999.90;;;22.70;97.80;;;;;;5053427;28;20454;-75
2023/06/24 07:44:45;;;;;;;1999.90;999.90;;;22.80;96.60;;;;;;5051853;28;20522;-74
2023/06/24 07:47:10;;;;;;;1999.90;999.90;;;23.10;95.50;;;;;;5051696;28;20030;-75
2023/06/24 07:49:36;;;;;;;1999.90;999.90;;;23.50;95.10;;;;;;5057281;28;20041;-75
2023/06/24 07:52:02;;;;;;;1999.90;999.90;;;23.40;94.20;;;;;;5038850;28;20065;-77
2023/06/24 07:54:27;;;;;;;1999.90;999.90;;;23.50;93.10;;;;;;5037405;28;20042;-75
2023/06/24 07:56:53;;;;;;;1999.90;999.90;;;23.70;92.00;;;;;;5056565;28;20057;-75
2023/06/24 07:59:18;;;;;;;1999.90;999.90;;;23.80;92.20;;;;;;5057358;28;20041;-80
2023/06/24 08:01:44;;;;;;;1999.90;999.90;;;23.90;93.10;;;;;;5056751;28;20029;-75
2023/06/24 08:04:09;;;;;;;1999.90;999.90;;;24.30;92.20;;;;;;5058205;28;20037;-75
2023/06/24 08:06:35;;;;;;;1999.90;999.90;;;24.10;92.70;;;;;;5054468;28;20041;-74
2023/06/24 08:09:00;;;;;;;1999.90;999.90;;;23.90;92.40;;;;;;5047633;28;20033;-74
2023/06/24 08:11:26;;;;;;;1999.90;999.90;;;24.10;92.00;;;;;;5056097;28;20395;-74
2023/06/24 08:13:51;;;;;;;1999.90;999.90;;;24.30;90.10;;;;;;5056860;28;20041;-75
2023/06/24 08:16:20;;;;;;;1999.90;999.90;;;24.40;90.00;;;;;;5057004;28;20088;-75
2023/06/24 08:18:46;;;;;;;1999.90;999.90;;;24.80;90.00;;;;;;5056698;28;20040;-75
2023/06/24 08:21:11;;;;;;;1999.90;999.90;;;24.50;88.20;;;;;;5054953;28;20120;-75
2023/06/24 08:23:37;;;;;;;1999.90;999.90;;;24.70;90.00;;;;;;5056921;28;20412;-75
2023/06/24 08:26:02;;;;;;;1999.90;999.90;;;24.60;88.20;;;;;;5076970;28;20585;-75
2023/06/24 08:28:28;;;;;;;1999.90;999.90;;;24.50;88.60;;;;;;5073878;28;20156;-75
2023/06/24 08:30:53;;;;;;;1999.90;999.90;;;24.60;90.30;;;;;;5055826;28;20079;-75
2023/06/24 08:33:19;;;;;;;1999.90;999.90;;;24.70;88.90;;;;;;5056244;28;20041;-75
2023/06/24 08:35:44;;;;;;;1999.90;999.90;;;24.70;88.90;;;;;;5056220;28;20033;-75
2023/06/24 08:38:10;;;;;;;1999.90;999.90;;;25.00;89.50;;;;;;5054923;28;20506;-75
2023/06/24 08:40:39;;;;;;;1999.90;999.90;;;24.80;90.00;;;;;;5056532;28;20099;-75
2023/06/24 08:43:05;;;;;;;1999.90;999.90;;;25.00;88.10;;;;;;5054787;28;20042;-75
2023/06/24 08:45:31;;;;;;;1999.90;999.90;;;25.00;86.50;;;;;;5056529;28;20025;-75
2023/06/24 08:47:58;;;;;;;1999.90;999.90;;;25.10;85.50;;;;;;5056119;28;20372;-75
2023/06/24 08:50:27;;;;;;;1999.90;999.90;;;25.40;86.20;;;;;;5056270;28;20033;-75
2023/06/24 08:52:53;;;;;;;1999.90;999.90;;;25.60;83.60;;;;;;5055793;28;20072;-75
2023/06/24 08:55:23;;;;;;;1999.90;999.90;;;25.90;82.80;;;;;;5055854;28;20068;-75
2023/06/24 08:57:49;;;;;;;1999.90;999.90;;;26.30;85.50;;;;;;5054978;28;20490;-75
2023/06/24 09:00:15;;;;;;;1999.90;999.90;;;26.50;82.00;;;;;;5056218;28;20576;-75
2023/06/24 09:02:41;;;;;;;1999.90;999.90;;;26.10;82.30;;;;;;5055747;28;20029;-75
2023/06/24 09:05:07;;;;;;;1999.90;999.90;;;26.00;80.60;;;;;;5056019;28;20033;-75
2023/06/24 09:07:33;;;;;;;1999.90;999.90;;;26.10;84.50;;;;;;5054361;28;20048;-75
2023/06/24 09:10:03;;;;;;;1999.90;999.90;;;26.20;82.20;;;;;;5055762;28;20038;-75
2023/06/24 09:12:32;;;;;;;1999.90;999.90;;;26.20;81.70;;;;;;5055614;28;20030;-75
2023/06/24 09:14:57;;;;;;;1999.90;999.90;;;26.30;79.50;;;;;;5056011;28;20108;-75
2023/06/24 09:17:23;;;;;;;1999.90;999.90;;;26.50;78.70;;;;;;5057533;28;20108;-74
2023/06/24 09:19:49;;;;;;;1999.90;999.90;;;26.70;78.60;;;;;;5056979;28;20037;-75
2023/06/24 09:22:18;;;;;;;1999.90;999.90;;;26.80;76.00;;;;;;5056413;28;20034;-75
2023/06/24 09:24:46;;;;;;;1999.90;999.90;;;27.00;76.70;;;;;;5055736;28;20153;-74
2023/06/24 09:27:14;;;;;;;1999.90;999.90;;;27.00;74.40;;;;;;5055608;28;20021;-75
2023/06/24 09:29:41;;;;;;;1999.90;999.90;;;27.00;70.70;;;;;;5055288;28;20037;-75
2023/06/24 09:32:07;;;;;;;1999.90;999.90;;;27.30;70.10;;;;;;5053624;28;20080;-75
2023/06/24 09:34:33;;;;;;;1999.90;999.90;;;26.90;72.00;;;;;;5053986;28;20041;-75
2023/06/24 09:36:59;;;;;;;1999.90;999.90;;;26.80;72.00;;;;;;5057692;28;20028;-75
2023/06/24 09:39:30;;;;;;;1999.90;999.90;;;26.90;73.30;;;;;;5075549;28;20450;-74
2023/06/24 09:41:57;;;;;;;1999.90;999.90;;;27.50;76.50;;;;;;5075582;28;20112;-76
2023/06/24 09:44:23;;;;;;;1999.90;999.90;;;27.50;74.50;;;;;;5074199;28;20037;-76
2023/06/24 09:46:50;;;;;;;1999.90;999.90;;;27.10;75.40;;;;;;5074290;28;20056;-76
2023/06/24 09:49:15;;;;;;;1999.90;999.90;;;27.20;70.40;;;;;;5075006;28;20095;-75
2023/06/24 09:51:46;;;;;;;1999.90;999.90;;;27.40;70.00;;;;;;5075256;28;20040;-76
2023/06/24 09:54:13;;;;;;;1999.90;999.90;;;27.80;67.80;;;;;;5075349;28;20041;-75
2023/06/24 09:56:49;;;;;;;1999.90;999.90;;;27.70;70.50;;;;;;5075623;28;20043;-76
2023/06/24 09:59:24;;;;;;;1999.90;999.90;;;27.70;73.00;;;;;;5074406;28;20043;-76
2023/06/24 10:01:53;;;;;;;1999.90;999.90;;;27.70;68.80;;;;;;5074813;28;20036;-76
2023/06/24 10:04:20;;;;;;;1999.90;999.90;;;27.90;69.70;;;;;;5075346;28;20119;-76
2023/06/24 10:06:45;;;;;;;1999.90;999.90;;;27.50;70.00;;;;;;5072788;28;20035;-76
2023/06/24 10:09:13;;;;;;;1999.90;999.90;;;26.50;71.00;;;;;;5074703;28;20405;-76
2023/06/24 10:11:39;;;;;;;1999.90;999.90;;;25.80;73.70;;;;;;5074950;28;20060;-75
2023/06/24 10:14:06;;;;;;;1999.90;999.90;;;25.90;76.80;;;;;;5075155;28;20044;-75
2023/06/24 10:16:31;;;;;;;1999.90;999.90;;;26.50;73.50;;;;;;5075365;28;20526;-75
2023/06/24 10:19:01;;;;;;;1999.90;999.90;;;26.90;73.00;;;;;;5074587;28;20124;-75
2023/06/24 10:22:12;;;;;;;1999.90;999.90;;;27.40;72.90;;;;;;5073060;28;20040;-76
2023/06/24 10:24:41;;;;;;;1999.90;999.90;;;27.50;71.90;;;;;;5072857;28;20095;-76
2023/06/24 10:27:17;;;;;;;1999.90;999.90;;;27.30;69.40;;;;;;5073676;28;20033;-76
2023/06/24 10:29:48;;;;;;;1999.90;999.90;;;27.30;70.20;;;;;;5074787;28;20037;-76
2023/06/24 10:32:13;;;;;;;1999.90;999.90;;;27.30;69.10;;;;;;5074432;28;20124;-76
2023/06/24 10:34:56;;;;;;;1999.90;999.90;;;27.70;71.40;;;;;;5073270;28;20069;-76
2023/06/24 10:37:25;;;;;;;1999.90;999.90;;;28.20;70.10;;;;;;5073391;28;20033;-76
2023/06/24 10:39:54;;;;;;;1999.90;999.90;;;28.20;66.20;;;;;;5059114;28;20128;-74
2023/06/24 10:42:26;;;;;;;1999.90;999.90;;;28.70;66.70;;;;;;5054550;28;20030;-76
2023/06/24 10:44:53;;;;;;;1999.90;999.90;;;28.50;65.00;;;;;;5054527;28;20030;-76
2023/06/24 10:47:19;;;;;;;1999.90;999.90;;;28.70;67.80;;;;;;5054626;28;20109;-76
2023/06/24 10:49:45;;;;;;;1999.90;999.90;;;28.60;68.70;;;;;;5054423;28;20046;-76
2023/06/24 10:52:12;;;;;;;1999.90;999.90;;;28.60;64.70;;;;;;5054354;28;20026;-76
2023/06/24 10:54:39;;;;;;;1999.90;999.90;;;28.60;62.40;;;;;;5052555;28;20041;-76
2023/06/24 10:57:05;;;;;;;1999.90;999.90;;;28.80;65.30;;;;;;5054387;28;20029;-75
2023/06/24 10:59:47;;;;;;;1999.90;999.90;;;29.00;63.50;;;;;;5052436;28;20498;-76
2023/06/24 11:02:14;;;;;;;1999.90;999.90;;;29.00;60.70;;;;;;5052501;28;20116;-75
2023/06/24 11:05:07;;;;;;;1999.90;999.90;;;28.70;60.20;;;;;;5054103;28;20084;-75
2023/06/24 11:07:35;;;;;;;1999.90;999.90;;;28.90;59.80;;;;;;5049860;28;20053;-75
2023/06/24 11:10:11;;;;;;;1999.90;999.90;;;29.00;60.80;;;;;;5054624;28;20471;-74
2023/06/24 11:12:38;;;;;;;1999.90;999.90;;;29.00;59.50;;;;;;5050559;28;20514;-74
2023/06/24 11:15:06;;;;;;;1999.90;999.90;;;29.10;57.60;;;;;;5053039;28;20509;-77
2023/06/24 11:17:33;;;;;;;1999.90;999.90;;;29.30;57.90;;;;;;5053777;28;20044;-74
2023/06/24 11:19:59;;;;;;;1999.90;999.90;;;29.40;58.40;;;;;;5057249;28;20041;-76
2023/06/24 11:22:26;;;;;;;1999.90;999.90;;;29.70;59.20;;;;;;5056548;28;20033;-75
2023/06/24 11:24:52;;;;;;;1999.90;999.90;;;29.80;60.00;;;;;;5056049;28;20041;-76
2023/06/24 11:27:28;;;;;;;1999.90;999.90;;;29.90;59.90;;;;;;5056559;28;20087;-76
2023/06/24 11:30:04;;;;;;;1999.90;999.90;;;30.10;60.70;;;;;;5057684;28;20509;-75
2023/06/24 11:32:37;;;;;;;1999.90;999.90;;;30.30;57.30;;;;;;5057065;28;20112;-76
2023/06/24 11:35:08;;;;;;;1999.90;999.90;;;30.60;57.60;;;;;;5055663;28;20040;-76
2023/06/24 11:37:33;;;;;;;1999.90;999.90;;;30.50;57.80;;;;;;5049000;28;20029;-75
2023/06/24 11:40:09;;;;;;;1999.90;999.90;;;30.30;57.10;;;;;;5053595;28;20041;-76
2023/06/24 11:42:44;;;;;;;1999.90;999.90;;;30.30;56.70;;;;;;5047144;28;20034;-74
2023/06/24 11:45:11;;;;;;;1999.90;999.90;;;30.20;56.40;;;;;;5040113;28;20069;-74
2023/06/24 11:47:38;;;;;;;1999.90;999.90;;;30.20;58.50;;;;;;5056887;28;20034;-74
2023/06/24 11:50:06;;;;;;;1999.90;999.90;;;30.50;58.50;;;;;;5054304;28;20538;-74
2023/06/24 11:52:52;;;;;;;1999.90;999.90;;;30.20;59.10;;;;;;5048190;28;20503;-74
2023/06/24 11:55:19;;;;;;;1999.90;999.90;;;30.80;57.90;;;;;;5049086;28;20120;-74
2023/06/24 11:58:00;;;;;;;1999.90;999.90;;;30.50;56.50;;;;;;5050203;28;20034;-74
2023/06/24 12:00:31;;;;;;;1999.90;999.90;;;30.40;56.70;;;;;;5045323;28;20057;-74